sensor_id;sensor_type;location;lat;lon;timestamp;P1;durP1;ratioP1;P2;durP2;ratioP2
23181;SDS011;11759;51.282;6.642;2024-02-16T00:01:48;5.32;;;2.60;;
23181;SDS011;11759;51.282;6.642;2024-02-16T00:04:14;9.77;;;2.42;;
23181;SDS011;11759;51.282;6.642;2024-02-16T00:06:41;6.10;;;2.38;;
23181;SDS011;11759;51.282;6.642;2024-02-16T00:09:08;9.35;;;2.20;;
23181;SDS011;11759;51.282;6.642;2024-02-16T00:11:36;6.10;;;2.58;;
23181;SDS011;11759;51.282;6.642;2024-02-16T00:14:03;5.72;;;2.40;;
23181;SDS011;11759;51.282;6.642;2024-02-16T00:16:30;7.03;;;2.10;;
23181;SDS011;11759;51.282;6.642;2024-02-16T00:18:57;5.32;;;2.28;;
23181;SDS011;11759;51.282;6.642;2024-02-16T00:21:24;8.48;;;2.58;;
23181;SDS011;11759;51.282;6.642;2024-02-16T00:23:51;7.40;;;2.22;;
23181;SDS011;11759;51.282;6.642;2024-02-16T00:26:17;4.63;;;2.13;;
23181;SDS011;11759;51.282;6.642;2024-02-16T00:28:45;6.78;;;2.88;;
23181;SDS011;11759;51.282;6.642;2024-02-16T00:31:13;11.95;;;2.30;;
23181;SDS011;11759;51.282;6.642;2024-02-16T00:33:40;8.45;;;2.65;;
23181;SDS011;11759;51.282;6.642;2024-02-16T00:36:08;7.68;;;2.63;;
23181;SDS011;11759;51.282;6.642;2024-02-16T00:38:36;7.10;;;2.42;;
23181;SDS011;11759;51.282;6.642;2024-02-16T00:41:03;7.78;;;2.33;;
23181;SDS011;11759;51.282;6.642;2024-02-16T00:43:31;5.53;;;2.38;;
23181;SDS011;11759;51.282;6.642;2024-02-16T00:45:57;8.98;;;2.58;;
23181;SDS011;11759;51.282;6.642;2024-02-16T00:48:24;7.07;;;2.50;;
23181;SDS011;11759;51.282;6.642;2024-02-16T00:50:51;8.23;;;2.20;;
23181;SDS011;11759;51.282;6.642;2024-02-16T00:53:18;9.85;;;2.58;;
23181;SDS011;11759;51.282;6.642;2024-02-16T00:55:45;4.95;;;2.40;;
23181;SDS011;11759;51.282;6.642;2024-02-16T00:58:12;7.03;;;2.15;;
23181;SDS011;11759;51.282;6.642;2024-02-16T01:00:39;9.43;;;2.17;;
23181;SDS011;11759;51.282;6.642;2024-02-16T01:03:06;5.47;;;2.00;;
23181;SDS011;11759;51.282;6.642;2024-02-16T01:05:32;8.85;;;2.30;;
23181;SDS011;11759;51.282;6.642;2024-02-16T01:07:59;10.07;;;2.25;;
23181;SDS011;11759;51.282;6.642;2024-02-16T01:10:26;10.73;;;2.92;;
23181;SDS011;11759;51.282;6.642;2024-02-16T01:12:53;6.00;;;2.42;;
23181;SDS011;11759;51.282;6.642;2024-02-16T01:15:22;6.28;;;2.20;;
23181;SDS011;11759;51.282;6.642;2024-02-16T01:17:49;7.70;;;2.65;;
23181;SDS011;11759;51.282;6.642;2024-02-16T01:20:16;5.15;;;2.42;;
23181;SDS011;11759;51.282;6.642;2024-02-16T01:22:42;6.80;;;2.40;;
23181;SDS011;11759;51.282;6.642;2024-02-16T01:25:09;13.45;;;2.25;;
23181;SDS011;11759;51.282;6.642;2024-02-16T01:27:36;10.00;;;2.38;;
23181;SDS011;11759;51.282;6.642;2024-02-16T01:30:03;4.13;;;2.08;;
23181;SDS011;11759;51.282;6.642;2024-02-16T01:32:30;7.07;;;2.47;;
23181;SDS011;11759;51.282;6.642;2024-02-16T01:34:57;9.25;;;2.97;;
23181;SDS011;11759;51.282;6.642;2024-02-16T01:37:24;9.93;;;2.50;;
23181;SDS011;11759;51.282;6.642;2024-02-16T01:39:51;4.88;;;2.13;;
23181;SDS011;11759;51.282;6.642;2024-02-16T01:42:18;7.00;;;2.50;;
23181;SDS011;11759;51.282;6.642;2024-02-16T01:44:45;5.82;;;2.67;;
23181;SDS011;11759;51.282;6.642;2024-02-16T01:47:12;7.28;;;2.50;;
23181;SDS011;11759;51.282;6.642;2024-02-16T01:49:38;13.93;;;2.90;;
23181;SDS011;11759;51.282;6.642;2024-02-16T01:52:05;4.82;;;1.95;;
23181;SDS011;11759;51.282;6.642;2024-02-16T01:54:32;9.88;;;2.15;;
23181;SDS011;11759;51.282;6.642;2024-02-16T01:57:00;8.88;;;2.50;;
23181;SDS011;11759;51.282;6.642;2024-02-16T01:59:27;6.65;;;2.40;;
23181;SDS011;11759;51.282;6.642;2024-02-16T02:01:54;7.18;;;2.33;;
23181;SDS011;11759;51.282;6.642;2024-02-16T02:04:21;6.82;;;2.15;;
23181;SDS011;11759;51.282;6.642;2024-02-16T02:06:48;6.72;;;2.28;;
23181;SDS011;11759;51.282;6.642;2024-02-16T02:09:15;5.28;;;2.15;;
23181;SDS011;11759;51.282;6.642;2024-02-16T02:11:41;10.77;;;2.55;;
23181;SDS011;11759;51.282;6.642;2024-02-16T02:14:08;6.75;;;2.20;;
23181;SDS011;11759;51.282;6.642;2024-02-16T02:16:35;8.80;;;2.40;;
23181;SDS011;11759;51.282;6.642;2024-02-16T02:19:16;9.25;;;2.88;;
23181;SDS011;11759;51.282;6.642;2024-02-16T02:21:43;8.30;;;2.42;;
23181;SDS011;11759;51.282;6.642;2024-02-16T02:24:10;10.35;;;2.33;;
23181;SDS011;11759;51.282;6.642;2024-02-16T02:26:37;5.10;;;2.10;;
23181;SDS011;11759;51.282;6.642;2024-02-16T02:29:04;5.75;;;2.53;;
23181;SDS011;11759;51.282;6.642;2024-02-16T02:31:31;9.80;;;2.92;;
23181;SDS011;11759;51.282;6.642;2024-02-16T02:33:57;9.15;;;2.95;;
23181;SDS011;11759;51.282;6.642;2024-02-16T02:36:24;8.00;;;2.75;;
23181;SDS011;11759;51.282;6.642;2024-02-16T02:38:51;4.68;;;2.65;;
23181;SDS011;11759;51.282;6.642;2024-02-16T02:41:18;6.85;;;2.70;;
23181;SDS011;11759;51.282;6.642;2024-02-16T02:43:46;9.23;;;2.75;;
23181;SDS011;11759;51.282;6.642;2024-02-16T02:46:16;6.53;;;2.20;;
23181;SDS011;11759;51.282;6.642;2024-02-16T02:48:43;5.53;;;2.45;;
23181;SDS011;11759;51.282;6.642;2024-02-16T02:51:18;8.52;;;2.65;;
23181;SDS011;11759;51.282;6.642;2024-02-16T02:53:45;12.38;;;2.80;;
23181;SDS011;11759;51.282;6.642;2024-02-16T02:56:11;10.18;;;2.72;;
23181;SDS011;11759;51.282;6.642;2024-02-16T02:58:41;9.60;;;2.35;;
23181;SDS011;11759;51.282;6.642;2024-02-16T03:01:08;5.22;;;2.35;;
23181;SDS011;11759;51.282;6.642;2024-02-16T03:03:35;6.35;;;2.30;;
23181;SDS011;11759;51.282;6.642;2024-02-16T03:06:02;7.68;;;2.22;;
23181;SDS011;11759;51.282;6.642;2024-02-16T03:08:30;7.55;;;2.42;;
23181;SDS011;11759;51.282;6.642;2024-02-16T03:10:57;6.13;;;2.53;;
23181;SDS011;11759;51.282;6.642;2024-02-16T03:13:27;4.53;;;2.08;;
23181;SDS011;11759;51.282;6.642;2024-02-16T03:15:54;4.97;;;2.63;;
23181;SDS011;11759;51.282;6.642;2024-02-16T03:18:21;7.93;;;2.65;;
23181;SDS011;11759;51.282;6.642;2024-02-16T03:20:48;6.70;;;2.53;;
23181;SDS011;11759;51.282;6.642;2024-02-16T03:23:17;6.80;;;2.50;;
23181;SDS011;11759;51.282;6.642;2024-02-16T03:25:44;7.80;;;2.63;;
23181;SDS011;11759;51.282;6.642;2024-02-16T03:28:13;5.30;;;2.17;;
23181;SDS011;11759;51.282;6.642;2024-02-16T03:30:40;8.98;;;2.75;;
23181;SDS011;11759;51.282;6.642;2024-02-16T03:33:08;6.60;;;2.20;;
23181;SDS011;11759;51.282;6.642;2024-02-16T03:35:37;8.52;;;3.00;;
23181;SDS011;11759;51.282;6.642;2024-02-16T03:38:04;10.85;;;2.90;;
23181;SDS011;11759;51.282;6.642;2024-02-16T03:40:31;6.80;;;2.25;;
23181;SDS011;11759;51.282;6.642;2024-02-16T03:42:58;7.05;;;2.20;;
23181;SDS011;11759;51.282;6.642;2024-02-16T03:45:25;5.50;;;2.85;;
23181;SDS011;11759;51.282;6.642;2024-02-16T03:47:54;7.93;;;2.70;;
23181;SDS011;11759;51.282;6.642;2024-02-16T03:50:21;3.42;;;2.25;;
23181;SDS011;11759;51.282;6.642;2024-02-16T03:52:49;10.10;;;2.65;;
23181;SDS011;11759;51.282;6.642;2024-02-16T03:55:15;3.95;;;2.22;;
23181;SDS011;11759;51.282;6.642;2024-02-16T03:57:42;5.38;;;2.55;;
23181;SDS011;11759;51.282;6.642;2024-02-16T04:00:09;9.45;;;2.97;;
23181;SDS011;11759;51.282;6.642;2024-02-16T04:02:40;6.13;;;2.30;;
23181;SDS011;11759;51.282;6.642;2024-02-16T04:05:07;7.70;;;2.72;;
23181;SDS011;11759;51.282;6.642;2024-02-16T04:07:34;10.85;;;2.67;;
23181;SDS011;11759;51.282;6.642;2024-02-16T04:10:01;7.18;;;2.78;;
23181;SDS011;11759;51.282;6.642;2024-02-16T04:12:28;8.07;;;2.38;;
23181;SDS011;11759;51.282;6.642;2024-02-16T04:14:55;7.63;;;2.97;;
23181;SDS011;11759;51.282;6.642;2024-02-16T04:17:22;6.70;;;2.45;;
23181;SDS011;11759;51.282;6.642;2024-02-16T04:19:48;7.82;;;2.40;;
23181;SDS011;11759;51.282;6.642;2024-02-16T04:22:15;7.13;;;2.97;;
23181;SDS011;11759;51.282;6.642;2024-02-16T04:24:42;5.25;;;2.60;;
23181;SDS011;11759;51.282;6.642;2024-02-16T04:27:09;4.85;;;2.67;;
23181;SDS011;11759;51.282;6.642;2024-02-16T04:29:35;9.20;;;2.63;;
23181;SDS011;11759;51.282;6.642;2024-02-16T04:32:02;7.50;;;2.78;;
23181;SDS011;11759;51.282;6.642;2024-02-16T04:34:29;4.47;;;2.30;;
23181;SDS011;11759;51.282;6.642;2024-02-16T04:36:56;5.13;;;2.75;;
23181;SDS011;11759;51.282;6.642;2024-02-16T04:39:23;9.63;;;2.75;;
23181;SDS011;11759;51.282;6.642;2024-02-16T04:41:49;4.75;;;2.05;;
23181;SDS011;11759;51.282;6.642;2024-02-16T04:44:18;7.55;;;2.47;;
23181;SDS011;11759;51.282;6.642;2024-02-16T04:46:45;15.45;;;2.40;;
23181;SDS011;11759;51.282;6.642;2024-02-16T04:49:11;6.07;;;2.50;;
23181;SDS011;11759;51.282;6.642;2024-02-16T04:51:39;6.95;;;2.90;;
23181;SDS011;11759;51.282;6.642;2024-02-16T04:54:06;9.75;;;2.60;;
23181;SDS011;11759;51.282;6.642;2024-02-16T04:56:34;4.10;;;2.13;;
23181;SDS011;11759;51.282;6.642;2024-02-16T04:59:00;10.95;;;2.40;;
23181;SDS011;11759;51.282;6.642;2024-02-16T05:01:28;7.53;;;2.20;;
23181;SDS011;11759;51.282;6.642;2024-02-16T05:03:56;8.63;;;2.40;;
23181;SDS011;11759;51.282;6.642;2024-02-16T05:06:23;10.07;;;2.78;;
23181;SDS011;11759;51.282;6.642;2024-02-16T05:08:51;6.03;;;2.60;;
23181;SDS011;11759;51.282;6.642;2024-02-16T05:11:18;8.65;;;2.75;;
23181;SDS011;11759;51.282;6.642;2024-02-16T05:13:45;5.30;;;2.50;;
23181;SDS011;11759;51.282;6.642;2024-02-16T05:16:12;6.43;;;2.65;;
23181;SDS011;11759;51.282;6.642;2024-02-16T05:18:39;5.90;;;2.22;;
23181;SDS011;11759;51.282;6.642;2024-02-16T05:21:07;7.97;;;2.63;;
23181;SDS011;11759;51.282;6.642;2024-02-16T05:23:34;12.10;;;3.08;;
23181;SDS011;11759;51.282;6.642;2024-02-16T05:26:00;5.10;;;2.45;;
23181;SDS011;11759;51.282;6.642;2024-02-16T05:28:27;4.80;;;2.33;;
23181;SDS011;11759;51.282;6.642;2024-02-16T05:30:55;4.93;;;2.95;;
23181;SDS011;11759;51.282;6.642;2024-02-16T05:33:22;11.57;;;2.85;;
23181;SDS011;11759;51.282;6.642;2024-02-16T05:35:50;6.13;;;3.20;;
23181;SDS011;11759;51.282;6.642;2024-02-16T05:38:21;12.13;;;2.80;;
23181;SDS011;11759;51.282;6.642;2024-02-16T05:40:59;5.38;;;2.88;;
23181;SDS011;11759;51.282;6.642;2024-02-16T05:43:26;8.45;;;3.20;;
23181;SDS011;11759;51.282;6.642;2024-02-16T05:45:53;10.60;;;3.42;;
23181;SDS011;11759;51.282;6.642;2024-02-16T05:48:20;10.45;;;3.70;;
23181;SDS011;11759;51.282;6.642;2024-02-16T05:50:48;7.05;;;3.20;;
23181;SDS011;11759;51.282;6.642;2024-02-16T05:53:15;16.13;;;4.10;;
23181;SDS011;11759;51.282;6.642;2024-02-16T05:55:42;15.68;;;4.45;;
23181;SDS011;11759;51.282;6.642;2024-02-16T05:58:11;15.25;;;3.28;;
23181;SDS011;11759;51.282;6.642;2024-02-16T06:00:38;11.20;;;3.20;;
23181;SDS011;11759;51.282;6.642;2024-02-16T06:03:05;7.38;;;3.25;;
23181;SDS011;11759;51.282;6.642;2024-02-16T06:05:33;13.90;;;3.80;;
23181;SDS011;11759;51.282;6.642;2024-02-16T06:08:00;8.65;;;3.00;;
23181;SDS011;11759;51.282;6.642;2024-02-16T06:10:27;9.52;;;2.83;;
23181;SDS011;11759;51.282;6.642;2024-02-16T06:12:53;7.97;;;2.88;;
23181;SDS011;11759;51.282;6.642;2024-02-16T06:15:20;10.10;;;3.30;;
23181;SDS011;11759;51.282;6.642;2024-02-16T06:17:48;11.35;;;3.30;;
23181;SDS011;11759;51.282;6.642;2024-02-16T06:20:16;7.20;;;2.85;;
23181;SDS011;11759;51.282;6.642;2024-02-16T06:22:46;5.65;;;2.80;;
23181;SDS011;11759;51.282;6.642;2024-02-16T06:25:13;10.30;;;3.22;;
23181;SDS011;11759;51.282;6.642;2024-02-16T06:27:41;5.72;;;3.08;;
23181;SDS011;11759;51.282;6.642;2024-02-16T06:30:08;8.07;;;2.97;;
23181;SDS011;11759;51.282;6.642;2024-02-16T06:32:39;8.38;;;3.20;;
23181;SDS011;11759;51.282;6.642;2024-02-16T06:35:09;6.95;;;3.20;;
23181;SDS011;11759;51.282;6.642;2024-02-16T06:37:37;6.32;;;2.90;;
23181;SDS011;11759;51.282;6.642;2024-02-16T06:40:08;9.52;;;3.47;;
23181;SDS011;11759;51.282;6.642;2024-02-16T06:42:39;7.88;;;2.88;;
23181;SDS011;11759;51.282;6.642;2024-02-16T06:45:06;7.20;;;3.53;;
23181;SDS011;11759;51.282;6.642;2024-02-16T06:47:33;8.50;;;2.80;;
23181;SDS011;11759;51.282;6.642;2024-02-16T06:50:00;7.28;;;3.38;;
23181;SDS011;11759;51.282;6.642;2024-02-16T06:52:27;4.80;;;2.85;;
23181;SDS011;11759;51.282;6.642;2024-02-16T06:54:55;7.88;;;3.15;;
23181;SDS011;11759;51.282;6.642;2024-02-16T06:57:22;7.22;;;3.90;;
23181;SDS011;11759;51.282;6.642;2024-02-16T06:59:49;5.93;;;2.60;;
23181;SDS011;11759;51.282;6.642;2024-02-16T07:02:16;9.73;;;3.58;;
23181;SDS011;11759;51.282;6.642;2024-02-16T07:04:44;9.75;;;3.17;;
23181;SDS011;11759;51.282;6.642;2024-02-16T07:07:12;10.93;;;3.03;;
23181;SDS011;11759;51.282;6.642;2024-02-16T07:09:39;9.55;;;3.35;;
23181;SDS011;11759;51.282;6.642;2024-02-16T07:12:06;5.72;;;3.10;;
23181;SDS011;11759;51.282;6.642;2024-02-16T07:14:33;8.30;;;3.22;;
23181;SDS011;11759;51.282;6.642;2024-02-16T07:17:00;7.18;;;3.13;;
23181;SDS011;11759;51.282;6.642;2024-02-16T07:19:26;8.88;;;3.08;;
23181;SDS011;11759;51.282;6.642;2024-02-16T07:21:53;7.07;;;2.80;;
23181;SDS011;11759;51.282;6.642;2024-02-16T07:24:20;11.32;;;3.35;;
23181;SDS011;11759;51.282;6.642;2024-02-16T07:26:47;7.32;;;3.10;;
23181;SDS011;11759;51.282;6.642;2024-02-16T07:29:15;8.15;;;3.17;;
23181;SDS011;11759;51.282;6.642;2024-02-16T07:31:43;7.45;;;3.08;;
23181;SDS011;11759;51.282;6.642;2024-02-16T07:34:10;6.47;;;2.92;;
23181;SDS011;11759;51.282;6.642;2024-02-16T07:36:38;6.40;;;2.85;;
23181;SDS011;11759;51.282;6.642;2024-02-16T07:39:04;7.03;;;3.08;;
23181;SDS011;11759;51.282;6.642;2024-02-16T07:41:31;6.63;;;2.72;;
23181;SDS011;11759;51.282;6.642;2024-02-16T07:43:58;7.13;;;2.70;;
23181;SDS011;11759;51.282;6.642;2024-02-16T07:46:25;8.70;;;2.85;;
23181;SDS011;11759;51.282;6.642;2024-02-16T07:48:51;6.10;;;2.92;;
23181;SDS011;11759;51.282;6.642;2024-02-16T07:51:18;13.95;;;2.85;;
23181;SDS011;11759;51.282;6.642;2024-02-16T07:53:46;7.47;;;2.90;;
23181;SDS011;11759;51.282;6.642;2024-02-16T07:56:12;6.70;;;2.95;;
23181;SDS011;11759;51.282;6.642;2024-02-16T07:58:40;6.03;;;2.90;;
23181;SDS011;11759;51.282;6.642;2024-02-16T08:01:11;8.48;;;3.20;;
23181;SDS011;11759;51.282;6.642;2024-02-16T08:03:40;6.65;;;2.65;;
23181;SDS011;11759;51.282;6.642;2024-02-16T08:06:07;8.80;;;2.63;;
23181;SDS011;11759;51.282;6.642;2024-02-16T08:08:34;7.95;;;2.90;;
23181;SDS011;11759;51.282;6.642;2024-02-16T08:11:00;6.88;;;2.83;;
23181;SDS011;11759;51.282;6.642;2024-02-16T08:13:27;7.18;;;2.67;;
23181;SDS011;11759;51.282;6.642;2024-02-16T08:15:54;5.72;;;3.20;;
23181;SDS011;11759;51.282;6.642;2024-02-16T08:18:21;10.50;;;3.25;;
23181;SDS011;11759;51.282;6.642;2024-02-16T08:20:48;9.48;;;3.00;;
23181;SDS011;11759;51.282;6.642;2024-02-16T08:23:15;8.43;;;2.78;;
23181;SDS011;11759;51.282;6.642;2024-02-16T08:25:42;4.72;;;2.75;;
23181;SDS011;11759;51.282;6.642;2024-02-16T08:28:09;10.45;;;3.08;;
23181;SDS011;11759;51.282;6.642;2024-02-16T08:30:37;7.30;;;2.70;;
23181;SDS011;11759;51.282;6.642;2024-02-16T08:33:07;7.63;;;3.00;;
23181;SDS011;11759;51.282;6.642;2024-02-16T08:35:34;9.00;;;3.10;;
23181;SDS011;11759;51.282;6.642;2024-02-16T08:38:01;11.73;;;3.28;;
23181;SDS011;11759;51.282;6.642;2024-02-16T08:40:27;5.78;;;2.78;;
23181;SDS011;11759;51.282;6.642;2024-02-16T08:42:54;5.40;;;2.90;;
23181;SDS011;11759;51.282;6.642;2024-02-16T08:45:21;9.52;;;3.13;;
23181;SDS011;11759;51.282;6.642;2024-02-16T08:47:48;8.43;;;3.10;;
23181;SDS011;11759;51.282;6.642;2024-02-16T08:50:18;8.40;;;2.67;;
23181;SDS011;11759;51.282;6.642;2024-02-16T08:52:45;6.55;;;3.05;;
23181;SDS011;11759;51.282;6.642;2024-02-16T08:55:12;5.40;;;2.85;;
23181;SDS011;11759;51.282;6.642;2024-02-16T08:57:39;8.60;;;3.03;;
23181;SDS011;11759;51.282;6.642;2024-02-16T09:00:05;6.68;;;2.75;;
23181;SDS011;11759;51.282;6.642;2024-02-16T09:02:34;6.35;;;2.72;;
23181;SDS011;11759;51.282;6.642;2024-02-16T09:05:01;9.68;;;2.65;;
23181;SDS011;11759;51.282;6.642;2024-02-16T09:07:30;4.70;;;2.63;;
23181;SDS011;11759;51.282;6.642;2024-02-16T09:09:56;8.50;;;2.50;;
23181;SDS011;11759;51.282;6.642;2024-02-16T09:12:23;7.55;;;2.92;;
23181;SDS011;11759;51.282;6.642;2024-02-16T09:14:50;8.20;;;3.00;;
23181;SDS011;11759;51.282;6.642;2024-02-16T09:17:16;8.00;;;3.22;;
23181;SDS011;11759;51.282;6.642;2024-02-16T09:19:45;6.10;;;2.65;;
23181;SDS011;11759;51.282;6.642;2024-02-16T09:22:12;9.07;;;3.28;;
23181;SDS011;11759;51.282;6.642;2024-02-16T09:24:39;12.27;;;3.22;;
23181;SDS011;11759;51.282;6.642;2024-02-16T09:27:07;6.57;;;2.55;;
23181;SDS011;11759;51.282;6.642;2024-02-16T09:29:36;10.32;;;2.78;;
23181;SDS011;11759;51.282;6.642;2024-02-16T09:32:03;7.35;;;3.08;;
23181;SDS011;11759;51.282;6.642;2024-02-16T09:34:30;8.10;;;2.70;;
23181;SDS011;11759;51.282;6.642;2024-02-16T09:36:57;9.63;;;2.92;;
23181;SDS011;11759;51.282;6.642;2024-02-16T09:39:24;11.45;;;2.90;;
23181;SDS011;11759;51.282;6.642;2024-02-16T09:41:51;6.75;;;2.95;;
23181;SDS011;11759;51.282;6.642;2024-02-16T09:44:18;7.50;;;3.10;;
23181;SDS011;11759;51.282;6.642;2024-02-16T09:46:46;7.53;;;3.10;;
23181;SDS011;11759;51.282;6.642;2024-02-16T09:49:15;10.40;;;3.13;;
23181;SDS011;11759;51.282;6.642;2024-02-16T09:51:49;6.35;;;2.85;;
23181;SDS011;11759;51.282;6.642;2024-02-16T09:54:16;9.40;;;3.10;;
23181;SDS011;11759;51.282;6.642;2024-02-16T09:56:44;10.02;;;3.55;;
23181;SDS011;11759;51.282;6.642;2024-02-16T09:59:12;4.47;;;2.53;;
23181;SDS011;11759;51.282;6.642;2024-02-16T10:01:39;8.73;;;2.97;;
23181;SDS011;11759;51.282;6.642;2024-02-16T10:04:06;9.43;;;2.83;;
23181;SDS011;11759;51.282;6.642;2024-02-16T10:06:45;7.80;;;2.83;;
23181;SDS011;11759;51.282;6.642;2024-02-16T10:09:26;7.53;;;3.30;;
23181;SDS011;11759;51.282;6.642;2024-02-16T10:11:55;7.60;;;3.03;;
23181;SDS011;11759;51.282;6.642;2024-02-16T10:14:23;7.55;;;3.20;;
23181;SDS011;11759;51.282;6.642;2024-02-16T10:17:04;8.02;;;2.50;;
23181;SDS011;11759;51.282;6.642;2024-02-16T10:19:32;17.10;;;2.85;;
23181;SDS011;11759;51.282;6.642;2024-02-16T10:22:09;7.15;;;2.97;;
23181;SDS011;11759;51.282;6.642;2024-02-16T10:24:37;8.25;;;3.03;;
23181;SDS011;11759;51.282;6.642;2024-02-16T10:27:16;7.03;;;2.90;;
23181;SDS011;11759;51.282;6.642;2024-02-16T10:29:46;8.27;;;2.92;;
23181;SDS011;11759;51.282;6.642;2024-02-16T10:32:13;8.32;;;3.55;;
23181;SDS011;11759;51.282;6.642;2024-02-16T10:34:40;12.25;;;3.10;;
23181;SDS011;11759;51.282;6.642;2024-02-16T10:37:08;9.35;;;2.83;;
23181;SDS011;11759;51.282;6.642;2024-02-16T10:39:35;11.32;;;3.08;;
23181;SDS011;11759;51.282;6.642;2024-02-16T10:42:05;9.57;;;3.15;;
23181;SDS011;11759;51.282;6.642;2024-02-16T10:44:33;8.65;;;3.17;;
23181;SDS011;11759;51.282;6.642;2024-02-16T10:47:02;12.90;;;3.00;;
23181;SDS011;11759;51.282;6.642;2024-02-16T10:49:28;7.75;;;2.90;;
23181;SDS011;11759;51.282;6.642;2024-02-16T10:51:56;6.85;;;2.90;;
23181;SDS011;11759;51.282;6.642;2024-02-16T10:54:27;12.80;;;4.22;;
23181;SDS011;11759;51.282;6.642;2024-02-16T10:59:23;9.68;;;3.08;;
23181;SDS011;11759;51.282;6.642;2024-02-16T11:01:59;10.63;;;3.22;;
23181;SDS011;11759;51.282;6.642;2024-02-16T11:04:35;8.60;;;3.28;;
23181;SDS011;11759;51.282;6.642;2024-02-16T11:07:13;7.32;;;3.00;;
23181;SDS011;11759;51.282;6.642;2024-02-16T11:09:45;8.88;;;3.13;;
23181;SDS011;11759;51.282;6.642;2024-02-16T11:12:13;7.72;;;2.95;;
23181;SDS011;11759;51.282;6.642;2024-02-16T11:14:47;10.55;;;3.63;;
23181;SDS011;11759;51.282;6.642;2024-02-16T11:17:22;8.95;;;3.05;;
23181;SDS011;11759;51.282;6.642;2024-02-16T11:19:50;8.98;;;3.17;;
23181;SDS011;11759;51.282;6.642;2024-02-16T11:22:20;13.85;;;3.33;;
23181;SDS011;11759;51.282;6.642;2024-02-16T11:24:48;13.52;;;3.78;;
23181;SDS011;11759;51.282;6.642;2024-02-16T11:27:16;10.57;;;3.53;;
23181;SDS011;11759;51.282;6.642;2024-02-16T11:32:15;11.10;;;3.67;;
23181;SDS011;11759;51.282;6.642;2024-02-16T11:34:42;9.95;;;3.60;;
23181;SDS011;11759;51.282;6.642;2024-02-16T11:37:10;6.90;;;3.42;;
23181;SDS011;11759;51.282;6.642;2024-02-16T11:39:39;14.35;;;3.88;;
23181;SDS011;11759;51.282;6.642;2024-02-16T11:42:08;11.38;;;3.55;;
23181;SDS011;11759;51.282;6.642;2024-02-16T11:44:39;7.97;;;3.55;;
23181;SDS011;11759;51.282;6.642;2024-02-16T11:47:07;9.05;;;3.83;;
23181;SDS011;11759;51.282;6.642;2024-02-16T11:49:41;10.68;;;3.67;;
23181;SDS011;11759;51.282;6.642;2024-02-16T11:52:08;14.43;;;4.15;;
23181;SDS011;11759;51.282;6.642;2024-02-16T11:54:34;10.10;;;3.63;;
23181;SDS011;11759;51.282;6.642;2024-02-16T11:57:03;16.65;;;4.43;;
23181;SDS011;11759;51.282;6.642;2024-02-16T11:59:30;9.77;;;4.07;;
23181;SDS011;11759;51.282;6.642;2024-02-16T12:01:58;11.73;;;3.75;;
23181;SDS011;11759;51.282;6.642;2024-02-16T12:04:28;12.00;;;4.45;;
23181;SDS011;11759;51.282;6.642;2024-02-16T12:09:27;11.67;;;4.20;;
23181;SDS011;11759;51.282;6.642;2024-02-16T12:11:54;10.90;;;4.45;;
23181;SDS011;11759;51.282;6.642;2024-02-16T12:14:23;13.88;;;4.90;;
23181;SDS011;11759;51.282;6.642;2024-02-16T12:16:50;12.75;;;5.07;;
23181;SDS011;11759;51.282;6.642;2024-02-16T12:19:18;18.00;;;5.20;;
23181;SDS011;11759;51.282;6.642;2024-02-16T12:21:50;9.77;;;4.95;;
23181;SDS011;11759;51.282;6.642;2024-02-16T12:24:18;13.07;;;5.38;;
23181;SDS011;11759;51.282;6.642;2024-02-16T12:26:45;13.25;;;5.10;;
23181;SDS011;11759;51.282;6.642;2024-02-16T12:29:12;14.02;;;5.05;;
23181;SDS011;11759;51.282;6.642;2024-02-16T12:31:43;13.68;;;4.68;;
23181;SDS011;11759;51.282;6.642;2024-02-16T12:34:10;12.73;;;5.00;;
23181;SDS011;11759;51.282;6.642;2024-02-16T12:36:41;11.07;;;5.13;;
23181;SDS011;11759;51.282;6.642;2024-02-16T12:39:13;14.55;;;5.72;;
23181;SDS011;11759;51.282;6.642;2024-02-16T12:41:42;14.32;;;5.60;;
23181;SDS011;11759;51.282;6.642;2024-02-16T12:44:10;10.90;;;4.93;;
23181;SDS011;11759;51.282;6.642;2024-02-16T12:46:37;10.10;;;4.32;;
23181;SDS011;11759;51.282;6.642;2024-02-16T12:49:05;9.35;;;5.03;;
23181;SDS011;11759;51.282;6.642;2024-02-16T12:51:33;16.65;;;4.95;;
23181;SDS011;11759;51.282;6.642;2024-02-16T12:54:00;13.55;;;5.47;;
23181;SDS011;11759;51.282;6.642;2024-02-16T12:56:30;19.20;;;5.40;;
23181;SDS011;11759;51.282;6.642;2024-02-16T12:58:57;11.23;;;5.25;;
23181;SDS011;11759;51.282;6.642;2024-02-16T13:01:26;12.63;;;4.80;;
23181;SDS011;11759;51.282;6.642;2024-02-16T13:03:53;15.88;;;5.80;;
23181;SDS011;11759;51.282;6.642;2024-02-16T13:06:20;9.32;;;4.95;;
23181;SDS011;11759;51.282;6.642;2024-02-16T13:08:53;10.20;;;5.45;;
23181;SDS011;11759;51.282;6.642;2024-02-16T13:11:20;10.45;;;5.13;;
23181;SDS011;11759;51.282;6.642;2024-02-16T13:13:48;13.73;;;5.35;;
23181;SDS011;11759;51.282;6.642;2024-02-16T13:16:14;12.52;;;5.32;;
23181;SDS011;11759;51.282;6.642;2024-02-16T13:18:41;11.50;;;5.50;;
23181;SDS011;11759;51.282;6.642;2024-02-16T13:21:09;14.82;;;5.35;;
23181;SDS011;11759;51.282;6.642;2024-02-16T13:23:35;9.50;;;5.63;;
23181;SDS011;11759;51.282;6.642;2024-02-16T13:26:02;19.25;;;5.97;;
23181;SDS011;11759;51.282;6.642;2024-02-16T13:28:30;13.65;;;6.05;;
23181;SDS011;11759;51.282;6.642;2024-02-16T13:30:58;16.27;;;6.43;;
23181;SDS011;11759;51.282;6.642;2024-02-16T13:33:25;18.80;;;7.88;;
23181;SDS011;11759;51.282;6.642;2024-02-16T13:35:52;13.35;;;6.85;;
23181;SDS011;11759;51.282;6.642;2024-02-16T13:38:21;12.93;;;6.85;;
23181;SDS011;11759;51.282;6.642;2024-02-16T13:40:47;13.93;;;6.70;;
23181;SDS011;11759;51.282;6.642;2024-02-16T13:43:15;14.57;;;7.30;;
23181;SDS011;11759;51.282;6.642;2024-02-16T13:45:53;15.20;;;7.60;;
23181;SDS011;11759;51.282;6.642;2024-02-16T13:48:20;20.52;;;7.85;;
23181;SDS011;11759;51.282;6.642;2024-02-16T13:50:49;13.65;;;7.20;;
23181;SDS011;11759;51.282;6.642;2024-02-16T13:53:17;13.45;;;6.97;;
23181;SDS011;11759;51.282;6.642;2024-02-16T13:55:52;15.70;;;7.55;;
23181;SDS011;11759;51.282;6.642;2024-02-16T13:58:19;17.02;;;7.68;;
23181;SDS011;11759;51.282;6.642;2024-02-16T14:00:46;14.60;;;7.72;;
23181;SDS011;11759;51.282;6.642;2024-02-16T14:03:15;17.50;;;8.43;;
23181;SDS011;11759;51.282;6.642;2024-02-16T14:05:44;18.02;;;8.73;;
23181;SDS011;11759;51.282;6.642;2024-02-16T14:08:11;16.85;;;8.60;;
23181;SDS011;11759;51.282;6.642;2024-02-16T14:10:40;22.77;;;9.00;;
23181;SDS011;11759;51.282;6.642;2024-02-16T14:13:07;19.35;;;8.95;;
23181;SDS011;11759;51.282;6.642;2024-02-16T14:15:33;19.40;;;9.25;;
23181;SDS011;11759;51.282;6.642;2024-02-16T14:18:00;16.83;;;9.93;;
23181;SDS011;11759;51.282;6.642;2024-02-16T14:20:37;18.20;;;9.52;;
23181;SDS011;11759;51.282;6.642;2024-02-16T14:23:04;19.52;;;10.13;;
23181;SDS011;11759;51.282;6.642;2024-02-16T14:25:34;20.00;;;10.20;;
23181;SDS011;11759;51.282;6.642;2024-02-16T14:28:03;22.48;;;10.50;;
23181;SDS011;11759;51.282;6.642;2024-02-16T14:30:30;23.33;;;10.77;;
23181;SDS011;11759;51.282;6.642;2024-02-16T14:32:59;20.25;;;10.70;;
23181;SDS011;11759;51.282;6.642;2024-02-16T14:35:26;16.42;;;9.90;;
23181;SDS011;11759;51.282;6.642;2024-02-16T14:37:53;20.23;;;9.85;;
23181;SDS011;11759;51.282;6.642;2024-02-16T14:40:20;16.88;;;9.80;;
23181;SDS011;11759;51.282;6.642;2024-02-16T14:42:46;14.25;;;7.80;;
23181;SDS011;11759;51.282;6.642;2024-02-16T14:45:13;13.80;;;7.38;;
23181;SDS011;11759;51.282;6.642;2024-02-16T14:47:53;11.90;;;6.95;;
23181;SDS011;11759;51.282;6.642;2024-02-16T14:50:21;13.85;;;7.40;;
23181;SDS011;11759;51.282;6.642;2024-02-16T14:52:48;14.50;;;7.55;;
23181;SDS011;11759;51.282;6.642;2024-02-16T14:55:17;14.13;;;7.22;;